Decoded Metar for PAEI (FAIRBANKS in AK, USA) (IATA:EIL) | Meteo·Mobile Aviation Weather
aviador You're here:

PAEI Decoded Metar

FAIRBANKS in AK, USA
Report Time2018-10-22 23:56:00
UTC Time2018-10-23 00:52:58
Flight Rules vfr VFR
WindCalm
Visibility9999 m
Phenomena:N/A
Clouds:N/A
Expected CloudBase > 3,200 ft AGL from Temp-Dew spread
CeilingNone
Temp07°C (ISA -7)
Dew Point-1°C (57% RH)
AAT4.9°C
QNH1000 hPa
Density Alt243 ft
Elevation548 ft
Report Wrong Elevation
Raw Report
PAEI 222356Z AUTO 00000KT 8SM CLR 07/M01 A2954=

Extra information for PAEI:More info

Metar Taf Metar & Taf Last 4 Metars F.Rules Stats Wind Profile Meteogram Temp Stats Airport Information Weather charts Add Link Nearby VenuesMetar ALERT Operation Metar Decoded Social comments

AIRNAV info for PAEI